Time;durP1;ratioP1;P1;durP2;ratioP2;P2;SDS_P1;SDS_P2;PMS_P1;PMS_P2;Temp;Humidity;BMP_temperature;BMP_pressure;BME280_temperature;BME280_humidity;BME280_pressure;Samples;Min_cycle;Max_cycle;Signal;HPM_P1;HPM_P2
2022/01/13 00:01:03;;;;;;;73.50;26.27;;;;;;;1.19;100.00;104184.72;5034908;28;20104;-82
2022/01/13 00:03:28;;;;;;;75.95;27.02;;;;;;;1.21;100.00;104195.78;5017233;28;20116;-84
2022/01/13 00:05:54;;;;;;;75.03;27.92;;;;;;;1.28;100.00;104197.72;5016310;28;20141;-80
2022/01/13 00:08:19;;;;;;;76.85;26.20;;;;;;;1.33;100.00;104202.94;5034792;28;20033;-81
2022/01/13 00:10:45;;;;;;;69.80;26.65;;;;;;;1.23;100.00;104175.47;5034500;28;20029;-84
2022/01/13 00:13:24;;;;;;;63.55;26.50;;;;;;;1.34;100.00;104192.78;5034478;28;20432;-87
2022/01/13 00:19:20;;;;;;;61.58;23.83;;;;;;;0.89;100.00;104110.00;5197603;22;20497;-80
2022/01/13 00:21:52;;;;;;;64.10;22.98;;;;;;;1.40;100.00;104203.16;5332869;22;20069;-81
2022/01/13 00:24:18;;;;;;;72.55;24.08;;;;;;;1.03;100.00;104160.47;5690688;22;21095;-75
2022/01/13 00:26:43;;;;;;;66.30;23.17;;;;;;;1.02;100.00;104161.28;5012931;28;20370;-77
2022/01/13 00:29:09;;;;;;;68.75;24.67;;;;;;;1.26;100.00;104198.47;5014252;28;20108;-76
2022/01/13 00:31:39;;;;;;;71.47;25.40;;;;;;;1.19;100.00;104201.66;5014235;28;20018;-75
2022/01/13 00:34:06;;;;;;;67.40;24.80;;;;;;;1.22;100.00;104219.56;5014141;28;20033;-77
2022/01/13 00:36:35;;;;;;;72.03;25.63;;;;;;;1.21;100.00;104217.84;5014013;28;20072;-74
2022/01/13 00:39:01;;;;;;;64.35;25.58;;;;;;;1.22;100.00;104202.59;5014193;28;20153;-77
2022/01/13 00:41:29;;;;;;;65.78;26.10;;;;;;;1.23;100.00;104193.28;5013998;28;20033;-76
2022/01/13 00:43:56;;;;;;;57.13;24.05;;;;;;;1.28;100.00;104197.72;5014195;28;20018;-78
2022/01/13 00:46:24;;;;;;;52.47;22.55;;;;;;;1.19;100.00;104181.31;5014075;28;20022;-80
2022/01/13 00:48:51;;;;;;;56.03;23.30;;;;;;;1.13;100.00;104166.69;4996814;28;20121;-77
2022/01/13 00:51:17;;;;;;;61.55;22.50;;;;;;;1.09;100.00;104167.44;4996124;28;20037;-80
2022/01/13 00:53:42;;;;;;;56.42;23.40;;;;;;;1.20;100.00;104183.03;5014081;28;20022;-75
2022/01/13 00:56:08;;;;;;;57.35;21.90;;;;;;;1.04;100.00;104151.16;5013861;28;20026;-84
2022/01/13 00:58:35;;;;;;;62.15;21.80;;;;;;;1.15;100.00;104171.00;5014050;28;20022;-84
2022/01/13 01:01:03;;;;;;;59.78;22.63;;;;;;;0.99;100.00;104148.47;5013873;28;20036;-79
2022/01/13 01:03:29;;;;;;;55.42;23.27;;;;;;;1.09;100.00;104169.97;5013796;28;20029;-77
2022/01/13 01:05:55;;;;;;;52.33;22.35;;;;;;;1.04;100.00;104156.25;5013829;28;20382;-75
2022/01/13 01:08:21;;;;;;;58.28;22.58;;;;;;;1.11;100.00;104173.44;5013639;28;20458;-79
2022/01/13 01:10:49;;;;;;;54.00;21.42;;;;;;;1.14;100.00;104176.06;5013700;28;20026;-76
2022/01/13 01:13:19;;;;;;;49.85;22.17;;;;;;;1.13;100.00;104179.44;5014020;28;20064;-77
2022/01/13 01:15:50;;;;;;;53.47;22.33;;;;;;;1.15;100.00;104175.25;5013831;28;20105;-75
2022/01/13 01:23:36;;;;;;;47.33;21.52;;;;;;;1.22;100.00;104173.75;5006942;28;20529;-75
2022/01/13 01:29:02;;;;;;;53.40;21.33;;;;;;;0.94;100.00;104123.69;4933782;29;20124;-77
2022/01/13 01:31:31;;;;;;;56.47;22.02;;;;;;;1.27;100.00;104184.91;4933722;29;20039;-78
2022/01/13 01:34:21;;;;;;;53.50;20.48;;;;;;;1.25;100.00;104179.78;4933766;29;20653;-78
2022/01/13 01:36:46;;;;;;;50.38;21.80;;;;;;;1.15;100.00;104172.69;4933728;29;20027;-80
2022/01/13 01:39:12;;;;;;;48.00;21.70;;;;;;;1.25;100.00;104177.22;4932418;29;20047;-78
2022/01/13 01:41:42;;;;;;;62.65;20.65;;;;;;;1.10;100.00;104161.53;4933744;29;20141;-76
2022/01/13 01:44:14;;;;;;;49.90;20.07;;;;;;;1.12;100.00;104154.78;4933726;29;20547;-82
2022/01/13 01:46:42;;;;;;;;;;;;;;;1.25;100.00;104177.22;4934074;29;20123;-82
2022/01/13 01:49:15;;;;;;;55.60;20.73;;;;;;;1.07;100.00;104154.63;4933583;29;19918;-86
2022/01/13 01:51:45;;;;;;;56.60;21.42;;;;;;;1.16;100.00;104174.41;4933154;29;20118;-83
2022/01/13 01:54:11;;;;;;;54.33;20.60;;;;;;;1.12;100.00;104172.59;4933376;29;20050;-85
2022/01/13 01:56:37;;;;;;;56.70;21.52;;;;;;;1.07;100.00;104161.41;4933552;29;20028;-84
2022/01/13 01:59:05;;;;;;;51.97;20.55;;;;;;;1.11;100.00;104165.78;4933376;28;20139;-84
2022/01/13 02:01:30;;;;;;;58.63;22.63;;;;;;;1.08;100.00;104168.22;4933419;29;20019;-82
2022/01/13 02:03:56;;;;;;;49.25;19.85;;;;;;;1.10;100.00;104169.16;4933534;29;20031;-84
2022/01/13 02:06:21;;;;;;;54.60;21.42;;;;;;;1.09;100.00;104169.97;4995726;28;20038;-81
2022/01/13 02:08:47;;;;;;;59.42;21.92;;;;;;;1.04;100.00;104167.28;5012771;28;20022;-84
2022/01/13 02:11:13;;;;;;;60.92;21.48;;;;;;;1.07;100.00;104181.78;5012825;28;20029;-84
2022/01/13 02:13:46;;;;;;;53.55;20.00;;;;;;;1.08;100.00;104175.88;5012727;28;20088;-85
2022/01/13 02:16:36;;;;;;;60.38;20.08;;;;;;;1.09;100.00;104168.28;5012811;28;20347;-84
2022/01/13 02:18:58;;;;;;;50.20;19.85;;;;;;;1.09;100.00;104173.38;5012594;28;20346;-84
2022/01/13 02:21:25;;;;;;;67.15;20.63;;;;;;;1.08;100.00;104175.88;5012548;28;20832;-83
2022/01/13 02:23:52;;;;;;;61.50;19.10;;;;;;;1.09;100.00;104172.53;5012469;28;20026;-82
2022/01/13 02:26:18;;;;;;;47.13;20.02;;;;;;;1.10;100.00;104177.66;5012887;28;20046;-85
2022/01/13 02:28:44;;;;;;;59.90;19.90;;;;;;;1.09;100.00;104175.94;5012709;28;20153;-85
2022/01/13 02:31:11;;;;;;;56.13;20.10;;;;;;;1.13;100.00;104174.34;5012581;28;20105;-84
2022/01/13 02:33:37;;;;;;;58.47;20.20;;;;;;;1.10;100.00;104175.13;5012537;28;20362;-84
2022/01/13 02:36:07;;;;;;;50.25;20.13;;;;;;;1.08;100.00;104166.56;5012531;28;20040;-81
2022/01/13 02:38:32;;;;;;;48.83;20.52;;;;;;;1.17;100.00;104181.22;5012507;28;20025;-85
2022/01/13 02:40:59;;;;;;;45.28;19.10;;;;;;;1.15;100.00;104176.09;5012594;28;20026;-84
2022/01/13 02:43:25;;;;;;;55.72;19.73;;;;;;;1.14;100.00;104169.28;5012561;28;20465;-83
2022/01/13 02:46:05;;;;;;;61.60;19.20;;;;;;;1.11;100.00;104170.88;5012535;28;20041;-83
2022/01/13 02:48:35;;;;;;;56.10;19.25;;;;;;;0.99;100.00;104147.63;5012269;28;20417;-80
2022/01/13 02:51:02;;;;;;;55.95;20.27;;;;;;;0.96;100.00;104144.97;5015979;28;20025;-84
2022/01/13 02:53:28;;;;;;;61.58;20.23;;;;;;;1.06;100.00;104165.63;5016260;28;20045;-85
2022/01/13 02:55:56;;;;;;;59.15;19.65;;;;;;;1.05;100.00;104166.47;5016178;28;20022;-83
2022/01/13 02:58:22;;;;;;;59.15;20.50;;;;;;;1.04;100.00;104172.38;5016266;28;20444;-83
2022/01/13 03:00:48;;;;;;;63.20;20.13;;;;;;;1.00;100.00;104164.63;5016400;28;20445;-83
2022/01/13 03:03:14;;;;;;;61.50;20.20;;;;;;;0.97;100.00;104157.72;5015925;28;20034;-84
2022/01/13 03:05:40;;;;;;;61.38;20.13;;;;;;;0.93;100.00;104147.44;5016071;28;20029;-83
2022/01/13 03:08:07;;;;;;;54.63;18.98;;;;;;;1.10;100.00;104171.72;5016047;28;20085;-85
2022/01/13 03:10:33;;;;;;;74.47;21.33;;;;;;;1.10;100.00;104179.34;5015780;28;20046;-78
2022/01/13 03:12:59;;;;;;;61.05;20.35;;;;;;;1.01;100.00;104159.56;5015964;28;20057;-76
2022/01/13 03:15:25;;;;;;;71.60;20.50;;;;;;;0.79;100.00;104119.91;5015887;28;20113;-76
2022/01/13 03:17:50;;;;;;;64.15;20.20;;;;;;;1.00;100.00;104160.38;5015805;28;20106;-79
2022/01/13 03:20:17;;;;;;;64.38;19.35;;;;;;;1.04;100.00;104172.38;5007850;28;20109;-75
2022/01/13 03:22:42;;;;;;;57.42;19.30;;;;;;;1.06;100.00;104174.97;5015838;28;20033;-84
2022/01/13 03:25:09;;;;;;;67.95;20.42;;;;;;;1.04;100.00;104164.72;4997707;28;20041;-73
2022/01/13 03:27:35;;;;;;;67.47;20.40;;;;;;;0.87;100.00;104132.81;5015501;28;20355;-80
2022/01/13 03:30:05;;;;;;;66.13;19.85;;;;;;;0.94;100.00;104141.50;5015531;28;20041;-78
2022/01/13 03:32:30;;;;;;;63.67;19.17;;;;;;;0.99;100.00;104147.63;5015616;28;20029;-84
2022/01/13 03:34:56;;;;;;;66.20;21.25;;;;;;;1.05;100.00;104151.19;5015590;28;20034;-76
2022/01/13 03:37:21;;;;;;;63.08;19.38;;;;;;;1.05;100.00;104152.88;5015669;28;20092;-79
2022/01/13 03:39:46;;;;;;;60.97;18.88;;;;;;;1.06;100.00;104152.06;5015510;28;20113;-75
2022/01/13 03:42:12;;;;;;;57.75;19.20;;;;;;;1.04;100.00;104146.91;5015388;28;20425;-75
2022/01/13 03:44:37;;;;;;;62.88;19.58;;;;;;;1.04;100.00;104141.84;5015170;28;20026;-75
2022/01/13 03:47:04;;;;;;;62.63;18.67;;;;;;;1.04;100.00;104139.28;5015400;28;20080;-76
2022/01/13 03:49:31;;;;;;;63.08;20.10;;;;;;;1.00;100.00;104134.06;5015238;28;20072;-74
2022/01/13 03:51:59;;;;;;;60.42;19.48;;;;;;;1.04;100.00;104140.97;5015304;28;20428;-79
2022/01/13 03:55:04;;;;;;;66.53;19.42;;;;;;;1.02;100.00;104133.28;5015101;28;20022;-75
2022/01/13 03:58:15;;;;;;;61.28;18.67;;;;;;;1.03;100.00;104141.78;5015053;28;20100;-82
2022/01/13 04:00:59;;;;;;;65.45;19.02;;;;;;;1.02;100.00;104140.06;5014273;28;20142;-79
2022/01/13 04:03:24;;;;;;;67.95;19.80;;;;;;;0.94;100.00;104128.78;5014975;28;20040;-79
2022/01/13 04:06:08;;;;;;;66.07;20.58;;;;;;;0.89;100.00;104117.63;5014903;28;20056;-74
2022/01/13 04:08:34;;;;;;;64.85;20.10;;;;;;;0.99;100.00;104137.44;4997313;28;20018;-84
2022/01/13 04:11:06;;;;;;;58.65;19.08;;;;;;;1.04;100.00;104151.16;5014596;28;20026;-85
2022/01/13 04:13:43;;;;;;;70.63;19.05;;;;;;;1.02;100.00;104140.94;5014644;28;20030;-78
2022/01/13 04:16:10;;;;;;;56.35;17.10;;;;;;;0.93;100.00;104130.47;5014738;28;20077;-78
2022/01/13 04:18:35;;;;;;;54.05;18.48;;;;;;;0.98;100.00;104136.53;5014824;28;20050;-74
2022/01/13 04:21:01;;;;;;;67.05;19.50;;;;;;;0.79;100.00;104113.94;5014543;28;20045;-78
2022/01/13 04:23:26;;;;;;;45.03;18.48;;;;;;;0.68;100.00;104090.69;5014691;28;20112;-81
2022/01/13 04:25:51;;;;;;;51.08;19.15;;;;;;;0.93;100.00;104129.63;5001290;28;20486;-79
2022/01/13 04:28:17;;;;;;;49.70;17.98;;;;;;;0.96;100.00;104138.19;4976624;28;20034;-74
2022/01/13 04:30:50;;;;;;;43.85;17.80;;;;;;;0.98;100.00;104133.13;4994858;28;20584;-77
2022/01/13 04:33:16;;;;;;;42.80;17.80;;;;;;;0.95;100.00;104128.84;4995125;28;20026;-75
2022/01/13 04:35:43;;;;;;;48.97;19.38;;;;;;;0.83;100.00;104110.66;4994781;28;20458;-79
2022/01/13 04:38:08;;;;;;;52.08;18.63;;;;;;;0.96;100.00;104128.00;4994953;28;20030;-84
2022/01/13 04:40:35;;;;;;;46.80;17.88;;;;;;;0.89;100.00;104117.63;4994396;28;20109;-84
2022/01/13 04:43:01;;;;;;;44.72;18.05;;;;;;;0.92;100.00;104125.34;4994853;28;20030;-85
2022/01/13 04:45:27;;;;;;;45.47;18.42;;;;;;;0.69;100.00;104084.81;4994730;28;20053;-84
2022/01/13 04:47:54;;;;;;;46.03;18.85;;;;;;;0.90;100.00;104117.66;4994570;28;20117;-85
2022/01/13 04:50:22;;;;;;;44.20;18.67;;;;;;;0.93;100.00;104127.94;4994490;28;20382;-85
2022/01/13 04:52:47;;;;;;;48.72;19.33;;;;;;;0.93;100.00;104127.06;4994629;28;20032;-86
2022/01/13 04:55:20;;;;;;;53.30;19.13;;;;;;;0.96;100.00;104133.09;4994381;28;20522;-83
2022/01/13 04:57:46;;;;;;;47.25;19.63;;;;;;;1.01;100.00;104128.16;4994377;28;20430;-83
2022/01/13 05:00:12;;;;;;;49.83;19.63;;;;;;;0.85;100.00;104109.03;4994329;28;20101;-84
2022/01/13 05:02:37;;;;;;;51.75;19.50;;;;;;;1.00;100.00;104132.41;4994256;28;20030;-82
2022/01/13 05:05:04;;;;;;;59.10;20.40;;;;;;;0.94;100.00;104122.03;4994270;28;20074;-85
2022/01/13 05:07:29;;;;;;;54.83;20.85;;;;;;;1.02;100.00;104132.44;4994194;28;20041;-85
2022/01/13 05:09:54;;;;;;;54.58;20.90;;;;;;;1.00;100.00;104127.31;4994044;28;20022;-85
2022/01/13 05:12:25;;;;;;;62.13;20.48;;;;;;;0.90;100.00;104112.59;4975678;28;20037;-85
2022/01/13 05:14:55;;;;;;;59.07;21.53;;;;;;;0.96;100.00;104127.16;4993832;28;20363;-83
2022/01/13 05:17:47;;;;;;;50.83;18.48;;;;;;;0.98;100.00;104145.88;4994209;28;20277;-85
2022/01/13 05:20:14;;;;;;;49.28;19.35;;;;;;;0.98;100.00;104143.31;4993818;28;20542;-84
2022/01/13 05:22:40;;;;;;;53.58;20.45;;;;;;;0.82;100.00;104121.66;4993861;28;20023;-84
2022/01/13 05:25:05;;;;;;;50.58;19.77;;;;;;;0.80;100.00;104113.13;5000533;28;20112;-85
2022/01/13 05:27:31;;;;;;;51.78;20.83;;;;;;;0.98;100.00;104140.78;5013444;28;20028;-85
2022/01/13 05:29:58;;;;;;;45.05;19.48;;;;;;;0.89;100.00;104110.84;5013394;28;20080;-85
2022/01/13 05:32:23;;;;;;;55.42;21.40;;;;;;;1.00;100.00;104139.16;5013220;28;20389;-85
2022/01/13 05:34:49;;;;;;;55.10;20.33;;;;;;;0.99;100.00;104137.44;5013647;28;20022;-86
2022/01/13 05:37:14;;;;;;;52.30;20.63;;;;;;;0.97;100.00;104128.88;5013300;28;20033;-83
2022/01/13 05:39:39;;;;;;;58.75;21.73;;;;;;;0.89;100.00;104120.19;5013500;28;20044;-85
2022/01/13 05:42:05;;;;;;;61.28;21.52;;;;;;;0.46;100.00;104050.19;5013079;28;20525;-85
2022/01/13 05:44:37;;;;;;;52.33;21.02;;;;;;;0.91;100.00;104124.47;5013272;28;20084;-85
2022/01/13 05:47:02;;;;;;;64.70;20.65;;;;;;;0.68;100.00;104090.69;5013262;28;20029;-85
2022/01/13 05:49:28;;;;;;;62.80;23.05;;;;;;;0.95;100.00;104133.91;5013261;28;20581;-81
2022/01/13 05:51:53;;;;;;;68.47;22.50;;;;;;;0.96;100.00;104137.31;5012919;28;20485;-85
2022/01/13 05:54:18;;;;;;;67.63;22.30;;;;;;;0.92;100.00;104138.06;5013135;28;20061;-84
2022/01/13 05:56:44;;;;;;;62.63;22.52;;;;;;;0.73;100.00;104106.97;5013013;28;20026;-83
2022/01/13 05:59:09;;;;;;;71.30;22.95;;;;;;;0.94;100.00;104136.44;4978063;28;20073;-85
2022/01/13 06:01:34;;;;;;;62.28;22.77;;;;;;;0.74;100.00;104101.06;5012952;28;20056;-85
2022/01/13 06:03:59;;;;;;;62.88;22.08;;;;;;;0.95;100.00;104136.47;5012633;28;20073;-85
2022/01/13 06:06:25;;;;;;;63.17;22.67;;;;;;;0.95;100.00;104130.50;5013025;28;20053;-86
2022/01/13 06:08:50;;;;;;;69.32;22.80;;;;;;;0.83;100.00;104115.75;5012785;28;20053;-86
2022/01/13 06:11:21;;;;;;;65.03;21.65;;;;;;;0.93;100.00;104137.25;5012804;28;20519;-85
2022/01/13 06:13:46;;;;;;;64.10;22.20;;;;;;;0.74;100.00;104103.59;5012681;28;20470;-84
2022/01/13 06:16:11;;;;;;;62.88;22.35;;;;;;;0.82;100.00;104114.88;5012755;28;20030;-84
2022/01/13 06:18:37;;;;;;;65.97;22.00;;;;;;;0.84;100.00;104115.78;5012690;28;20026;-85
2022/01/13 06:21:02;;;;;;;76.22;24.30;;;;;;;0.92;100.00;104136.38;5012799;28;20033;-85
2022/01/13 06:23:27;;;;;;;66.07;22.10;;;;;;;0.93;100.00;104133.03;4995370;28;20018;-85
2022/01/13 06:25:53;;;;;;;70.07;23.10;;;;;;;0.93;100.00;104129.63;5012329;28;20568;-83
2022/01/13 06:28:18;;;;;;;71.05;21.85;;;;;;;0.74;100.00;104100.22;5012792;28;20409;-85
2022/01/13 06:30:44;;;;;;;76.72;23.70;;;;;;;0.93;100.00;104133.03;5012659;28;20072;-85
2022/01/13 06:33:09;;;;;;;75.72;24.77;;;;;;;0.78;100.00;104109.66;5012553;28;20021;-85
2022/01/13 06:35:36;;;;;;;73.97;23.52;;;;;;;0.94;100.00;104132.19;5012722;28;20060;-85
2022/01/13 06:38:01;;;;;;;75.13;25.05;;;;;;;0.62;100.00;104071.88;5012685;28;20026;-85
2022/01/13 06:40:27;;;;;;;82.95;23.40;;;;;;;0.79;100.00;104101.22;5012879;28;20034;-81
2022/01/13 06:42:52;;;;;;;76.18;22.90;;;;;;;0.86;100.00;104111.59;5012495;28;20057;-78
2022/01/13 06:45:17;;;;;;;80.75;23.88;;;;;;;0.71;100.00;104090.81;5012693;28;20080;-85
2022/01/13 06:47:43;;;;;;;70.75;22.05;;;;;;;0.91;100.00;104121.06;5012648;28;20033;-85
2022/01/13 06:50:09;;;;;;;79.70;22.88;;;;;;;0.88;100.00;104116.72;5012521;28;20041;-83
2022/01/13 06:52:35;;;;;;;76.85;23.45;;;;;;;0.79;100.00;104098.69;5012736;28;20061;-85
2022/01/13 06:55:00;;;;;;;72.40;22.27;;;;;;;0.83;100.00;104103.91;5012558;28;20050;-86
2022/01/13 06:57:25;;;;;;;69.15;21.98;;;;;;;0.98;100.00;104126.38;4979039;28;20057;-85
2022/01/13 06:59:51;;;;;;;92.55;23.83;;;;;;;0.99;100.00;104129.81;5012530;28;20084;-84
2022/01/13 07:02:19;;;;;;;65.60;21.95;;;;;;;0.73;100.00;104075.59;5012346;28;20030;-83
2022/01/13 07:04:45;;;;;;;59.70;21.85;;;;;;;0.69;100.00;104072.09;5012330;28;20026;-81
2022/01/13 07:07:10;;;;;;;66.20;21.55;;;;;;;1.05;100.00;104124.88;5012502;28;20033;-86
2022/01/13 07:09:36;;;;;;;67.85;20.30;;;;;;;0.81;100.00;104084.31;5012367;28;20022;-87
2022/01/13 07:12:02;;;;;;;74.30;19.60;;;;;;;1.00;100.00;104124.75;5012287;28;20037;-86
2022/01/13 07:14:27;;;;;;;66.63;19.45;;;;;;;0.98;100.00;104121.28;5012272;28;20041;-87
2022/01/13 07:16:52;;;;;;;70.00;20.48;;;;;;;0.92;100.00;104116.03;5012520;28;20026;-86
2022/01/13 07:19:18;;;;;;;67.57;19.33;;;;;;;0.93;100.00;104115.22;5012391;28;20500;-85
2022/01/13 07:21:44;;;;;;;60.65;19.08;;;;;;;0.79;100.00;104099.53;5012391;28;20080;-86
2022/01/13 07:24:10;;;;;;;68.47;20.40;;;;;;;0.96;100.00;104122.06;4994248;28;20034;-86
2022/01/13 07:26:36;;;;;;;55.65;19.52;;;;;;;0.89;100.00;104110.00;5012210;28;20070;-84
2022/01/13 07:29:03;;;;;;;63.75;19.10;;;;;;;0.99;100.00;104117.94;4994428;28;20060;-85
2022/01/13 07:31:28;;;;;;;70.22;20.23;;;;;;;1.00;100.00;104127.31;5012047;28;20036;-84
2022/01/13 07:33:54;;;;;;;64.32;20.30;;;;;;;0.97;100.00;104123.78;5012286;28;20034;-80
2022/01/13 07:36:20;;;;;;;64.55;17.92;;;;;;;0.83;100.00;104103.03;5012884;28;20022;-86
2022/01/13 07:38:45;;;;;;;57.40;18.38;;;;;;;0.89;100.00;104113.41;5015624;28;20381;-87
2022/01/13 07:41:10;;;;;;;63.30;18.42;;;;;;;0.90;100.00;104110.03;5015592;28;20453;-85
2022/01/13 07:43:36;;;;;;;53.28;18.52;;;;;;;0.99;100.00;104123.03;5015368;28;20054;-83
2022/01/13 07:46:02;;;;;;;55.92;16.95;;;;;;;0.98;100.00;104117.88;5015425;28;20493;-85
2022/01/13 07:48:27;;;;;;;51.63;18.85;;;;;;;0.87;100.00;104099.75;5015303;28;20030;-82
2022/01/13 07:50:53;;;;;;;50.58;18.48;;;;;;;0.88;100.00;104096.38;4996883;28;20120;-85
2022/01/13 07:53:19;;;;;;;65.03;18.13;;;;;;;0.91;100.00;104099.03;5015462;28;20034;-85
2022/01/13 07:55:45;;;;;;;62.45;17.60;;;;;;;0.89;100.00;104097.28;5015280;28;20096;-78
2022/01/13 07:58:11;;;;;;;59.97;17.25;;;;;;;1.06;100.00;104131.69;5015338;28;20038;-87
2022/01/13 08:00:36;;;;;;;56.20;18.20;;;;;;;0.97;100.00;104122.09;5015206;28;20026;-85
2022/01/13 08:03:02;;;;;;;50.38;17.38;;;;;;;0.98;100.00;104126.38;5015083;28;20513;-86
2022/01/13 08:05:27;;;;;;;54.17;18.48;;;;;;;1.10;100.00;104141.16;5015095;28;20026;-83
2022/01/13 08:07:53;;;;;;;62.20;18.27;;;;;;;0.91;100.00;104108.34;5015518;28;20018;-76
2022/01/13 08:10:18;;;;;;;64.13;18.27;;;;;;;1.15;100.00;104144.69;5015091;28;20105;-79
2022/01/13 08:12:43;;;;;;;65.57;18.50;;;;;;;1.18;100.00;104144.81;5015145;28;20072;-83
2022/01/13 08:15:13;;;;;;;57.88;18.27;;;;;;;1.21;100.00;104149.13;5014738;28;20029;-83
2022/01/13 08:20:27;;;;;;;77.80;19.23;;;;;;;1.12;100.00;104126.78;5014845;28;20048;-84
2022/01/13 08:22:52;;;;;;;64.90;19.05;;;;;;;1.03;100.00;104108.72;5014827;28;20112;-83
2022/01/13 08:25:18;;;;;;;53.03;17.33;;;;;;;1.09;100.00;104119.06;5014680;28;20046;-83
2022/01/13 08:27:43;;;;;;;67.88;20.05;;;;;;;1.14;100.00;104137.88;4997163;28;20129;-81
2022/01/13 08:30:09;;;;;;;62.28;19.60;;;;;;;1.04;100.00;104116.38;5014735;28;20028;-80
2022/01/13 08:32:35;;;;;;;59.80;18.25;;;;;;;1.28;100.00;104169.72;5014567;28;20022;-84
2022/01/13 08:35:00;;;;;;;59.00;18.38;;;;;;;1.29;100.00;104158.69;5014619;28;20425;-83
2022/01/13 08:37:26;;;;;;;54.85;17.40;;;;;;;1.29;100.00;104161.25;5014622;28;20025;-78
2022/01/13 08:39:51;;;;;;;61.63;18.83;;;;;;;1.21;100.00;104149.97;5014547;28;20077;-83
2022/01/13 08:42:17;;;;;;;48.25;16.50;;;;;;;1.35;100.00;104173.28;5014448;28;20088;-81
2022/01/13 08:44:42;;;;;;;59.65;20.23;;;;;;;1.25;100.00;104153.47;4996811;28;20358;-83
2022/01/13 08:47:09;;;;;;;52.60;17.52;;;;;;;1.07;100.00;104113.06;5020446;23;20247;-81
2022/01/13 08:49:36;;;;;;;52.50;16.98;;;;;;;1.41;100.00;104164.13;4996875;28;20060;-83
2022/01/13 08:52:06;;;;;;;42.90;16.13;;;;;;;1.49;100.00;104168.59;5014092;28;20504;-83
2022/01/13 08:54:32;;;;;;;43.03;16.63;;;;;;;1.49;100.00;104161.81;5014058;28;20541;-83
2022/01/13 08:56:58;;;;;;;58.35;17.88;;;;;;;1.57;100.00;104172.19;5014424;28;20026;-82
2022/01/13 08:59:24;;;;;;;55.28;17.05;;;;;;;1.60;100.00;104179.94;4996581;28;20401;-78
2022/01/13 09:01:49;;;;;;;43.67;16.98;;;;;;;1.62;100.00;104181.72;5014144;28;20025;-80
2022/01/13 09:04:15;;;;;;;50.50;18.48;;;;;;;1.61;100.00;104177.44;5014124;28;20097;-80
2022/01/13 09:06:40;;;;;;;42.72;17.10;;;;;;;1.55;100.00;104156.88;5013675;28;20029;-77
2022/01/13 09:09:06;;;;;;;46.92;16.50;;;;;;;1.52;100.00;104150.84;4996384;28;20025;-85
2022/01/13 09:11:31;;;;;;;57.67;17.17;;;;;;;1.56;100.00;104157.72;5013990;28;20066;-84
2022/01/13 09:13:58;;;;;;;53.63;16.52;;;;;;;1.73;100.00;104174.34;5014105;28;20037;-85
2022/01/13 09:16:29;;;;;;;57.90;17.30;;;;;;;1.73;100.00;104180.31;5013870;28;20029;-81
2022/01/13 09:21:23;;;;;;;41.72;15.32;;;;;;;1.80;100.00;104183.03;5013796;28;20030;-81
2022/01/13 09:23:49;;;;;;;43.03;15.45;;;;;;;1.81;100.00;104179.66;5013980;28;20038;-80
2022/01/13 09:26:16;;;;;;;40.75;16.65;;;;;;;1.80;100.00;104180.50;5013548;28;20040;-82
2022/01/13 09:28:42;;;;;;;39.58;15.77;;;;;;;1.84;100.00;104179.75;5013561;28;20547;-80
2022/01/13 09:31:07;;;;;;;55.08;16.90;;;;;;;1.86;100.00;104180.66;4995094;28;20041;-80
2022/01/13 09:33:33;;;;;;;45.58;16.88;;;;;;;1.87;100.00;104187.47;5013653;28;20026;-82
2022/01/13 09:36:00;;;;;;;56.25;17.55;;;;;;;1.90;100.00;104178.22;5013280;28;20033;-78
2022/01/13 09:38:25;;;;;;;50.00;16.83;;;;;;;1.69;100.00;104131.81;5013528;28;20506;-78
2022/01/13 09:40:52;;;;;;;40.92;15.80;;;;;;;1.90;100.00;104164.63;5013592;28;20107;-83
2022/01/13 09:43:21;;;;;;;47.08;16.55;;;;;;;1.91;100.00;104168.91;4995822;28;20042;-78
2022/01/13 09:45:47;;;;;;;52.72;17.95;;;;;;;1.95;100.00;104175.78;5013357;28;20021;-80
2022/01/13 09:48:13;;;;;;;57.80;17.90;;;;;;;1.91;100.00;104166.34;5012911;28;20041;-85
2022/01/13 09:50:40;;;;;;;46.97;16.73;;;;;;;2.04;100.00;104181.13;5012997;28;20054;-84
2022/01/13 09:53:07;;;;;;;53.88;17.60;;;;;;;2.11;100.00;104182.16;4995767;28;20385;-84
2022/01/13 09:55:33;;;;;;;52.53;17.40;;;;;;;2.12;100.00;104192.41;4994808;28;20038;-86
2022/01/13 10:05:49;;;;;;;48.03;16.38;;;;;;;2.05;100.00;104180.31;5322087;22;20063;-76
2022/01/13 10:08:14;;;;;;;52.35;16.88;;;;;;;2.06;100.00;104179.47;4993431;28;20101;-77
2022/01/13 10:10:40;;;;;;;44.95;16.70;;;;;;;1.94;100.00;104156.22;4975819;28;20130;-77
2022/01/13 10:13:10;;;;;;;46.10;16.67;;;;;;;2.07;100.00;104172.72;4993384;28;20030;-80
2022/01/13 10:18:46;;;;;;;46.28;17.00;;;;;;;1.95;100.00;104150.31;4993260;28;20045;-84
2022/01/13 10:21:14;;;;;;;47.10;17.42;;;;;;;2.25;100.00;104191.03;4993434;28;20387;-87
2022/01/13 10:24:02;;;;;;;59.95;17.92;;;;;;;2.31;100.00;104196.28;4993324;28;20022;-76
2022/01/13 10:26:29;;;;;;;51.65;18.77;;;;;;;2.29;100.00;104180.09;4993084;28;20053;-85
2022/01/13 10:28:54;;;;;;;53.65;20.63;;;;;;;2.34;100.00;104186.16;5010019;28;20488;-74
2022/01/13 10:31:19;;;;;;;47.03;19.15;;;;;;;2.37;100.00;104186.25;5012763;28;20169;-76
2022/01/13 10:33:45;;;;;;;50.90;19.13;;;;;;;2.14;100.00;104138.91;5012667;28;20049;-84
2022/01/13 10:36:12;;;;;;;56.90;19.00;;;;;;;2.42;100.00;104182.13;5027454;28;20042;-80
2022/01/13 10:38:57;;;;;;;55.88;20.80;;;;;;;2.44;100.00;104177.06;5012683;28;20032;-85
2022/01/13 10:42:11;;;;;;;62.05;19.80;;;;;;;2.30;100.00;104166.53;5012866;28;20079;-82
2022/01/13 10:44:25;;;;;;;53.17;20.77;;;;;;;2.41;100.00;104170.19;5012629;28;20056;-70
2022/01/13 10:47:04;;;;;;;52.65;18.80;;;;;;;2.48;100.00;104182.28;5012168;28;20482;-77
2022/01/13 10:49:34;;;;;;;49.67;19.52;;;;;;;2.52;100.00;104180.66;5012620;28;20437;-75
2022/01/13 10:52:35;;;;;;;51.10;20.65;;;;;;;2.55;100.00;104168.81;5012660;28;20109;-74
2022/01/13 10:55:03;;;;;;;56.30;20.48;;;;;;;2.65;100.00;104174.16;4952041;29;20035;-74
2022/01/13 10:57:30;;;;;;;53.13;21.42;;;;;;;2.70;100.00;104181.09;4952461;29;20082;-78
2022/01/13 10:59:56;;;;;;;53.38;21.20;;;;;;;2.71;100.00;104170.06;4952059;29;20027;-82
2022/01/13 11:02:23;;;;;;;57.70;21.48;;;;;;;2.62;100.00;104146.03;4952251;29;20526;-80
2022/01/13 11:04:48;;;;;;;52.90;21.35;;;;;;;2.67;100.00;104154.66;4952304;29;20618;-77
2022/01/13 11:07:27;;;;;;;52.60;20.50;;;;;;;2.58;100.00;104145.09;4952164;29;20035;-87
2022/01/13 11:09:58;;;;;;;56.58;20.95;;;;;;;2.45;100.00;104117.56;4952346;28;20085;-78
2022/01/13 11:12:38;;;;;;;54.17;21.00;;;;;;;2.70;100.00;104147.94;4955811;29;20049;-81
2022/01/13 11:15:12;;;;;;;63.53;22.50;;;;;;;2.77;100.00;104151.50;4955856;28;20513;-80
2022/01/13 11:17:40;;;;;;;51.75;20.55;;;;;;;2.73;100.00;104152.22;4955912;29;20837;-79
2022/01/13 11:20:19;;;;;;;46.88;19.42;;;;;;;2.68;100.00;104139.38;4955646;29;20102;-79
2022/01/13 11:22:47;;;;;;;53.28;21.40;;;;;;;2.84;99.95;104156.75;4955764;29;20047;-83
2022/01/13 11:25:18;;;;;;;59.55;24.63;;;;;;;2.70;100.00;104106.25;4957656;28;20484;-88
2022/01/13 11:27:44;;;;;;;58.40;25.35;;;;;;;2.82;99.91;104122.69;4956670;28;20058;-80
2022/01/13 11:30:16;;;;;;;57.17;22.33;;;;;;;3.03;100.00;104141.84;5016068;28;20051;-77
2022/01/13 11:32:43;;;;;;;53.20;21.20;;;;;;;2.98;99.88;104131.53;5015718;28;20544;-76
2022/01/13 11:35:11;;;;;;;56.90;21.23;;;;;;;2.92;99.23;104126.28;5015750;28;20030;-78
2022/01/13 11:37:39;;;;;;;58.85;23.50;;;;;;;2.75;99.27;104102.09;4998212;28;20037;-73
2022/01/13 11:40:06;;;;;;;44.00;19.05;;;;;;;2.90;99.73;104127.97;5015576;28;20092;-75